createdAt,value
2017-11-22T00:01:55.624Z,9.00
2017-11-22T00:04:21.782Z,7.30
2017-11-22T00:06:47.866Z,6.83
2017-11-22T00:09:14.043Z,7.27
2017-11-22T00:11:40.153Z,8.10
2017-11-22T00:14:07.115Z,8.83
2017-11-22T00:16:33.982Z,7.53
2017-11-22T00:19:00.090Z,8.10
2017-11-22T00:21:26.214Z,7.43
2017-11-22T00:23:52.412Z,8.87
2017-11-22T00:26:19.552Z,8.90
2017-11-22T00:28:46.526Z,8.20
2017-11-22T00:31:12.957Z,8.17
2017-11-22T00:33:42.536Z,8.10
2017-11-22T00:36:08.803Z,10.50
2017-11-22T00:38:35.358Z,9.40
2017-11-22T00:41:02.363Z,8.83
2017-11-22T00:43:28.615Z,8.73
2017-11-22T00:45:54.830Z,9.07
2017-11-22T00:48:21.038Z,8.80
2017-11-22T00:50:48.030Z,8.70
2017-11-22T00:53:20.736Z,8.70
2017-11-22T00:55:47.135Z,8.80
2017-11-22T00:58:15.400Z,9.37
2017-11-22T01:00:42.393Z,8.00
2017-11-22T01:03:08.738Z,8.30
2017-11-22T01:05:35.778Z,7.30
2017-11-22T01:08:02.059Z,7.80
2017-11-22T01:10:28.615Z,8.30
2017-11-22T01:12:56.503Z,9.13
2017-11-22T01:15:25.436Z,8.13
2017-11-22T01:17:53.401Z,9.37
2017-11-22T01:20:24.438Z,9.93
2017-11-22T01:22:52.510Z,10.17
2017-11-22T01:25:21.335Z,10.20
2017-11-22T01:27:49.226Z,9.00
2017-11-22T01:30:17.141Z,8.57
2017-11-22T01:32:45.243Z,9.03
2017-11-22T01:35:13.185Z,8.67
2017-11-22T01:37:41.070Z,9.00
2017-11-22T01:40:09.034Z,11.50
2017-11-22T01:42:37.932Z,10.30
2017-11-22T01:45:05.998Z,9.37
2017-11-22T01:47:34.015Z,9.07
2017-11-22T01:50:02.026Z,11.30
2017-11-22T01:52:29.965Z,16.40
2017-11-22T01:54:58.070Z,9.33
2017-11-22T01:57:26.013Z,10.47
2017-11-22T01:59:54.859Z,9.77
2017-11-22T02:02:22.785Z,9.77
2017-11-22T02:04:50.741Z,10.13
2017-11-22T02:07:18.715Z,10.10
2017-11-22T02:09:46.942Z,11.67
2017-11-22T02:12:15.389Z,16.17
2017-11-22T02:14:43.521Z,16.30
2017-11-22T02:17:11.541Z,15.60
2017-11-22T02:19:39.701Z,13.60
2017-11-22T02:22:07.654Z,15.53
2017-11-22T02:24:35.649Z,17.70
2017-11-22T02:27:03.542Z,18.53
2017-11-22T02:29:31.447Z,17.70
2017-11-22T02:31:59.492Z,19.93
2017-11-22T02:34:27.405Z,20.70
2017-11-22T02:36:55.380Z,20.20
2017-11-22T02:39:23.261Z,19.20
2017-11-22T02:41:51.130Z,20.97
2017-11-22T02:44:19.046Z,20.13
2017-11-22T02:46:46.949Z,21.80
2017-11-22T02:49:14.980Z,21.27
2017-11-22T02:51:42.966Z,22.90
2017-11-22T02:54:10.856Z,19.93
2017-11-22T02:56:38.835Z,20.13
2017-11-22T02:59:07.337Z,19.27
2017-11-22T03:01:35.273Z,19.97
2017-11-22T03:04:03.238Z,18.87
2017-11-22T03:06:31.188Z,16.30
2017-11-22T03:08:59.181Z,15.30
2017-11-22T03:11:27.178Z,15.20
2017-11-22T03:13:55.237Z,14.30
2017-11-22T03:16:23.207Z,14.33
2017-11-22T03:18:51.173Z,12.63
2017-11-22T03:21:19.160Z,13.40
2017-11-22T03:23:47.087Z,14.53
2017-11-22T03:26:15.006Z,14.07
2017-11-22T03:28:43.150Z,14.83
2017-11-22T03:31:11.066Z,15.40
2017-11-22T03:33:38.914Z,15.73
2017-11-22T03:36:06.864Z,16.20
2017-11-22T03:38:34.803Z,16.50
2017-11-22T03:41:03.725Z,16.10
2017-11-22T03:43:31.762Z,18.00
2017-11-22T03:45:59.669Z,18.20
2017-11-22T03:48:27.557Z,18.57
2017-11-22T03:51:01.679Z,18.77
2017-11-22T03:53:35.781Z,19.67
2017-11-22T03:56:03.645Z,19.40
2017-11-22T03:58:31.565Z,19.17
2017-11-22T04:00:59.425Z,20.97
2017-11-22T04:03:27.343Z,20.57
2017-11-22T04:05:55.225Z,19.70
2017-11-22T04:08:25.973Z,20.40
2017-11-22T04:10:54.867Z,21.80
2017-11-22T04:13:22.725Z,21.10
2017-11-22T04:15:50.608Z,21.20
2017-11-22T04:18:19.281Z,19.80
2017-11-22T04:20:53.616Z,21.93
2017-11-22T04:23:21.562Z,21.07
2017-11-22T04:25:49.497Z,21.73
2017-11-22T04:28:17.421Z,19.70
2017-11-22T04:30:45.722Z,19.80
2017-11-22T04:33:14.231Z,19.83
2017-11-22T04:35:42.141Z,19.90
2017-11-22T04:38:10.034Z,20.20
2017-11-22T04:40:37.981Z,21.20
2017-11-22T04:43:08.850Z,20.90
2017-11-22T04:45:36.762Z,20.40
2017-11-22T04:48:04.753Z,21.50
2017-11-22T04:50:32.602Z,21.00
2017-11-22T04:53:00.483Z,21.50
2017-11-22T04:55:28.333Z,20.93
2017-11-22T04:57:56.246Z,20.37
2017-11-22T05:00:24.113Z,20.50
2017-11-22T05:02:51.954Z,19.00
2017-11-22T05:05:19.792Z,19.70
2017-11-22T05:07:47.665Z,21.07
2017-11-22T05:10:15.573Z,20.60
2017-11-22T05:12:43.433Z,20.80
2017-11-22T05:15:11.301Z,20.47
2017-11-22T05:17:39.134Z,20.17
2017-11-22T05:20:06.990Z,20.13
2017-11-22T05:22:34.897Z,19.87
2017-11-22T05:25:02.730Z,18.57
2017-11-22T05:27:30.575Z,18.57
2017-11-22T05:29:58.573Z,17.63
2017-11-22T05:32:26.438Z,20.30
2017-11-22T05:34:54.328Z,18.03
2017-11-22T05:37:22.242Z,18.73
2017-11-22T05:39:50.077Z,18.30
2017-11-22T05:42:17.987Z,18.83
2017-11-22T05:44:45.946Z,18.00
2017-11-22T05:47:13.828Z,19.40
2017-11-22T05:49:41.685Z,18.30
2017-11-22T05:52:09.646Z,18.70
2017-11-22T05:54:37.557Z,18.53
2017-11-22T05:57:05.592Z,18.10
2017-11-22T05:59:33.531Z,18.27
2017-11-22T06:02:01.381Z,18.13
2017-11-22T06:04:29.327Z,16.87
2017-11-22T06:06:57.276Z,18.53
2017-11-22T06:09:25.141Z,18.77
2017-11-22T06:11:52.989Z,16.13
2017-11-22T06:14:20.855Z,17.87
2017-11-22T06:16:48.803Z,17.47
2017-11-22T06:19:17.582Z,17.13
2017-11-22T06:21:45.562Z,17.63
2017-11-22T06:24:13.472Z,17.17
2017-11-22T06:26:41.329Z,18.47
2017-11-22T06:29:09.278Z,17.73
2017-11-22T06:31:37.194Z,17.40
2017-11-22T06:34:05.081Z,18.33
2017-11-22T06:36:34.010Z,16.90
2017-11-22T06:39:04.974Z,17.90
2017-11-22T06:41:32.894Z,17.63
2017-11-22T06:44:00.789Z,17.00
2017-11-22T06:46:28.656Z,19.07
2017-11-22T06:48:56.516Z,18.80
2017-11-22T06:51:24.458Z,18.00
2017-11-22T06:53:52.371Z,19.07
2017-11-22T06:56:20.284Z,18.50
2017-11-22T06:58:48.208Z,17.30
2017-11-22T07:01:17.116Z,18.27
2017-11-22T07:03:51.051Z,17.70
2017-11-22T07:06:18.984Z,18.20
2017-11-22T07:08:47.020Z,19.20
2017-11-22T07:11:14.912Z,17.13
2017-11-22T07:13:42.827Z,17.93
2017-11-22T07:16:16.863Z,17.60
2017-11-22T07:18:45.730Z,18.47
2017-11-22T07:21:13.575Z,18.67
2017-11-22T07:23:41.509Z,19.97
2017-11-22T07:26:09.435Z,16.47
2017-11-22T07:28:37.341Z,18.83
2017-11-22T07:31:05.261Z,17.97
2017-11-22T07:33:33.257Z,19.33
2017-11-22T07:36:07.349Z,17.50
2017-11-22T07:38:35.252Z,17.53
2017-11-22T07:41:03.263Z,19.57
2017-11-22T07:43:31.249Z,20.33
2017-11-22T07:45:59.214Z,17.70
2017-11-22T07:48:28.180Z,18.03
2017-11-22T07:50:58.110Z,17.77
2017-11-22T07:53:26.182Z,17.63
2017-11-22T07:55:54.105Z,18.30
2017-11-22T07:58:22.059Z,15.70
2017-11-22T08:00:50.054Z,16.60
2017-11-22T08:03:20.901Z,15.00
2017-11-22T08:05:48.896Z,16.80
2017-11-22T08:08:16.792Z,17.17
2017-11-22T08:10:44.758Z,15.43
2017-11-22T08:13:12.791Z,16.27
2017-11-22T08:15:40.694Z,13.47
2017-11-22T08:18:08.570Z,13.43
2017-11-22T08:20:36.490Z,14.10
2017-11-22T08:23:04.632Z,13.47
2017-11-22T08:25:32.511Z,14.07
2017-11-22T08:28:00.512Z,13.00
2017-11-22T08:30:28.453Z,12.00
2017-11-22T08:32:56.309Z,13.70
2017-11-22T08:35:24.233Z,13.40
2017-11-22T08:37:52.103Z,12.77
2017-11-22T08:40:20.099Z,12.20
2017-11-22T08:42:54.106Z,13.10
2017-11-22T08:45:22.055Z,13.00
2017-11-22T08:47:50.008Z,11.80
2017-11-22T08:50:17.974Z,12.23
2017-11-22T08:52:45.983Z,13.30
2017-11-22T08:55:16.772Z,12.43
2017-11-22T08:57:50.881Z,13.23
2017-11-22T09:00:19.357Z,12.93
2017-11-22T09:02:49.170Z,13.20
2017-11-22T09:05:17.438Z,12.60
2017-11-22T09:07:45.501Z,12.20
2017-11-22T09:10:13.369Z,12.77
2017-11-22T09:12:44.237Z,12.50
2017-11-22T09:15:12.121Z,11.97
2017-11-22T09:17:39.986Z,12.70
2017-11-22T09:20:07.905Z,12.10
2017-11-22T09:22:35.861Z,11.83
2017-11-22T09:25:05.671Z,11.37
2017-11-22T09:27:39.606Z,12.10
2017-11-22T09:30:12.332Z,13.30
2017-11-22T09:32:40.282Z,13.20
2017-11-22T09:35:11.036Z,10.70
2017-11-22T09:37:38.925Z,11.80
2017-11-22T09:40:06.799Z,12.70
2017-11-22T09:42:41.514Z,13.47
2017-11-22T09:45:09.410Z,10.90
2017-11-22T09:47:37.283Z,10.83
2017-11-22T09:50:05.137Z,11.67
2017-11-22T09:52:33.031Z,11.33
2017-11-22T09:55:00.890Z,10.77
2017-11-22T09:57:28.818Z,11.13
2017-11-22T09:59:56.951Z,11.00
2017-11-22T10:02:24.796Z,10.50
2017-11-22T10:04:52.739Z,9.60
2017-11-22T10:07:20.644Z,11.40
2017-11-22T10:09:48.541Z,10.00
2017-11-22T10:12:16.406Z,10.53
2017-11-22T10:14:44.267Z,9.87
2017-11-22T10:17:12.138Z,11.60
2017-11-22T10:19:42.942Z,9.10
2017-11-22T10:22:10.804Z,10.60
2017-11-22T10:24:43.440Z,11.03
2017-11-22T10:27:17.416Z,9.77
2017-11-22T10:29:45.258Z,10.50
2017-11-22T10:32:19.445Z,10.40
2017-11-22T10:34:48.296Z,10.20
2017-11-22T10:37:16.149Z,9.07
2017-11-22T10:39:44.050Z,9.10
2017-11-22T10:42:11.924Z,10.33
2017-11-22T10:44:39.781Z,9.37
2017-11-22T10:47:07.665Z,10.50
2017-11-22T10:49:35.502Z,10.00
2017-11-22T10:52:03.394Z,9.67
2017-11-22T10:54:31.267Z,9.40
2017-11-22T10:56:59.132Z,10.13
2017-11-22T10:59:26.993Z,9.87
2017-11-22T11:01:54.916Z,9.97
2017-11-22T11:04:22.754Z,9.57
2017-11-22T11:06:50.627Z,11.00
2017-11-22T11:09:18.519Z,9.33
2017-11-22T11:11:46.413Z,9.53
2017-11-22T11:14:14.284Z,9.03
2017-11-22T11:16:42.169Z,9.73
2017-11-22T11:19:10.055Z,9.17
2017-11-22T11:21:37.997Z,9.20
2017-11-22T11:24:05.878Z,10.10
2017-11-22T11:26:33.737Z,9.50
2017-11-22T11:29:01.673Z,8.90
2017-11-22T11:31:29.570Z,9.50
2017-11-22T11:33:57.494Z,10.00
2017-11-22T11:36:31.325Z,10.07
2017-11-22T11:38:59.184Z,8.83
2017-11-22T11:41:27.037Z,9.27
2017-11-22T11:43:54.933Z,8.67
2017-11-22T11:46:21.266Z,8.53
2017-11-22T11:48:47.426Z,9.23
2017-11-22T11:51:13.645Z,8.90
2017-11-22T11:53:39.787Z,9.53
2017-11-22T11:56:06.002Z,9.03
2017-11-22T11:58:32.902Z,9.03
2017-11-22T12:00:59.053Z,8.77
2017-11-22T12:03:25.183Z,8.97
2017-11-22T12:05:52.297Z,9.13
2017-11-22T12:08:19.610Z,8.90
2017-11-22T12:10:45.767Z,8.70
2017-11-22T12:13:11.899Z,8.90
2017-11-22T12:15:38.816Z,9.10
2017-11-22T12:18:04.918Z,8.63
2017-11-22T12:20:31.793Z,8.73
2017-11-22T12:23:03.982Z,9.20
2017-11-22T12:25:30.154Z,9.30
2017-11-22T12:27:56.306Z,7.70
2017-11-22T12:30:22.698Z,8.30
2017-11-22T12:32:48.787Z,9.27
2017-11-22T12:35:14.990Z,9.67
2017-11-22T12:37:41.142Z,9.60
2017-11-22T12:40:07.252Z,8.90
2017-11-22T12:42:35.137Z,9.00
2017-11-22T12:45:03.033Z,9.57
2017-11-22T12:47:30.901Z,10.03
2017-11-22T12:49:58.826Z,8.47
2017-11-22T12:52:26.722Z,8.80
2017-11-22T12:54:54.645Z,9.10
2017-11-22T12:57:22.687Z,9.10
2017-11-22T12:59:50.583Z,9.40
2017-11-22T13:02:18.513Z,9.17
2017-11-22T13:04:46.415Z,8.97
2017-11-22T13:07:14.333Z,9.83
2017-11-22T13:09:42.295Z,9.73
2017-11-22T13:12:10.375Z,9.30
2017-11-22T13:14:38.248Z,9.33
2017-11-22T13:17:06.166Z,9.87
2017-11-22T13:19:34.045Z,8.70
2017-11-22T13:22:01.985Z,8.00
2017-11-22T13:24:31.046Z,8.00
2017-11-22T13:26:58.945Z,8.63
2017-11-22T13:29:26.809Z,8.10
2017-11-22T13:31:54.690Z,9.90
2017-11-22T13:34:22.607Z,8.73
2017-11-22T13:36:50.522Z,8.80
2017-11-22T13:39:18.366Z,9.03
2017-11-22T13:41:46.249Z,9.13
2017-11-22T13:44:14.101Z,8.10
2017-11-22T13:46:41.997Z,8.17
2017-11-22T13:49:10.017Z,9.73
2017-11-22T13:51:37.876Z,9.40
2017-11-22T13:54:05.763Z,9.60
2017-11-22T13:56:33.667Z,8.30
2017-11-22T13:59:01.501Z,8.20
2017-11-22T14:01:29.399Z,9.23
2017-11-22T14:03:57.261Z,9.20
2017-11-22T14:06:25.114Z,8.93
2017-11-22T14:08:52.970Z,8.23
2017-11-22T14:11:20.844Z,9.70
2017-11-22T14:13:48.691Z,8.43
2017-11-22T14:16:16.556Z,10.17
2017-11-22T14:18:44.429Z,9.57
2017-11-22T14:21:13.009Z,8.80
2017-11-22T14:23:41.955Z,9.00
2017-11-22T14:26:09.858Z,9.60
2017-11-22T14:28:37.739Z,9.07
2017-11-22T14:31:05.604Z,8.50
2017-11-22T14:33:33.768Z,9.17
2017-11-22T14:36:01.675Z,8.23
2017-11-22T14:38:29.575Z,9.37
2017-11-22T14:40:57.512Z,8.30
2017-11-22T14:43:25.442Z,8.43
2017-11-22T14:45:53.298Z,8.87
2017-11-22T14:48:21.249Z,9.53
2017-11-22T14:50:49.114Z,9.70
2017-11-22T14:53:16.990Z,9.60
2017-11-22T14:55:44.875Z,9.90
2017-11-22T14:58:13.948Z,8.93
2017-11-22T15:00:41.859Z,9.40
2017-11-22T15:03:09.842Z,8.60
2017-11-22T15:05:38.297Z,10.60
2017-11-22T15:08:06.228Z,12.07
2017-11-22T15:10:34.089Z,9.70
2017-11-22T15:13:01.991Z,9.27
2017-11-22T15:15:29.885Z,10.70
2017-11-22T15:17:57.791Z,9.73
2017-11-22T15:20:25.637Z,9.47
2017-11-22T15:22:51.730Z,9.80
2017-11-22T15:25:17.829Z,11.67
2017-11-22T15:27:44.020Z,9.73
2017-11-22T15:30:10.255Z,9.30
2017-11-22T15:32:36.366Z,9.93
2017-11-22T15:35:02.468Z,9.73
2017-11-22T15:37:29.333Z,10.60
2017-11-22T15:39:55.491Z,10.13
2017-11-22T15:42:21.682Z,9.47
2017-11-22T15:44:47.806Z,10.63
2017-11-22T15:47:13.952Z,11.17
2017-11-22T15:49:40.854Z,10.33
2017-11-22T15:52:06.949Z,10.37
2017-11-22T15:54:33.074Z,12.60
2017-11-22T15:56:59.178Z,10.90
2017-11-22T15:59:25.277Z,11.53
2017-11-22T16:01:51.538Z,11.80
2017-11-22T16:04:17.700Z,11.73
2017-11-22T16:06:44.518Z,11.73
2017-11-22T16:09:11.479Z,11.80
2017-11-22T16:11:38.345Z,14.03
2017-11-22T16:14:04.461Z,11.90
2017-11-22T16:16:30.599Z,13.23
2017-11-22T16:18:56.910Z,12.67
2017-11-22T16:21:23.016Z,13.30
2017-11-22T16:23:49.167Z,14.30
2017-11-22T16:26:15.291Z,14.80
2017-11-22T16:28:42.400Z,15.00
2017-11-22T16:31:08.540Z,14.87
2017-11-22T16:33:34.695Z,14.90
2017-11-22T16:36:00.835Z,15.40
2017-11-22T16:38:27.014Z,14.83
2017-11-22T16:40:53.101Z,13.33
2017-11-22T16:43:19.386Z,13.00
2017-11-22T16:45:45.572Z,15.00
2017-11-22T16:48:11.787Z,13.17
2017-11-22T16:50:37.990Z,13.77
2017-11-22T16:53:04.846Z,19.17
2017-11-22T16:55:30.954Z,17.90
2017-11-22T16:57:57.067Z,15.20
2017-11-22T17:00:23.199Z,14.87
2017-11-22T17:02:49.333Z,14.83
2017-11-22T17:05:15.487Z,14.83
2017-11-22T17:07:41.627Z,15.37
2017-11-22T17:10:08.008Z,15.87
2017-11-22T17:12:34.233Z,13.50
2017-11-22T17:15:00.362Z,12.33
2017-11-22T17:17:26.493Z,13.53
2017-11-22T17:19:53.070Z,13.50
2017-11-22T17:22:20.422Z,12.90
2017-11-22T17:24:46.688Z,12.83
2017-11-22T17:27:12.836Z,13.03
2017-11-22T17:29:40.260Z,13.40
2017-11-22T17:32:06.380Z,12.10
2017-11-22T17:34:32.482Z,11.60
2017-11-22T17:36:58.694Z,12.73
2017-11-22T17:39:24.809Z,13.10
2017-11-22T17:41:50.900Z,11.67
2017-11-22T17:44:17.055Z,11.20
2017-11-22T17:46:43.183Z,12.00
2017-11-22T17:49:09.358Z,16.27
2017-11-22T17:51:35.587Z,11.97
2017-11-22T17:54:01.731Z,14.80
2017-11-22T17:56:28.029Z,13.47
2017-11-22T17:58:54.209Z,16.60
2017-11-22T18:01:20.327Z,13.70
2017-11-22T18:03:46.424Z,13.17
2017-11-22T18:06:14.322Z,13.07
2017-11-22T18:08:42.353Z,14.10
2017-11-22T18:11:10.965Z,14.40
2017-11-22T18:13:38.875Z,12.60
2017-11-22T18:16:06.849Z,12.70
2017-11-22T18:18:34.714Z,13.60
2017-11-22T18:21:02.667Z,14.37
2017-11-22T18:23:30.521Z,16.00
2017-11-22T18:25:58.398Z,13.43
2017-11-22T18:28:26.345Z,14.13
2017-11-22T18:30:54.290Z,13.37
2017-11-22T18:33:22.840Z,13.97
2017-11-22T18:35:50.776Z,14.33
2017-11-22T18:38:18.854Z,12.97
2017-11-22T18:40:46.534Z,13.07
2017-11-22T18:43:12.734Z,14.40
2017-11-22T18:45:38.882Z,14.13
2017-11-22T18:48:05.163Z,14.17
2017-11-22T18:50:31.425Z,15.00
2017-11-22T18:52:58.292Z,13.00
2017-11-22T18:55:24.411Z,14.30
2017-11-22T18:57:51.518Z,17.00
2017-11-22T19:00:17.612Z,16.20
2017-11-22T19:02:43.762Z,14.40
2017-11-22T19:05:10.649Z,14.60
2017-11-22T19:07:36.744Z,15.00
2017-11-22T19:10:03.619Z,15.63
2017-11-22T19:12:30.546Z,13.20
2017-11-22T19:14:57.421Z,13.90
2017-11-22T19:17:25.295Z,16.63
2017-11-22T19:19:54.190Z,15.57
2017-11-22T19:22:22.033Z,14.80
2017-11-22T19:24:51.913Z,16.20
2017-11-22T19:27:19.821Z,15.93
2017-11-22T19:29:47.713Z,16.57
2017-11-22T19:32:15.607Z,17.00
2017-11-22T19:34:43.840Z,15.77
2017-11-22T19:37:11.839Z,16.03
2017-11-22T19:39:39.781Z,15.73
2017-11-22T19:42:07.717Z,15.83
2017-11-22T19:44:35.581Z,16.33
2017-11-22T19:47:03.427Z,16.63
2017-11-22T19:49:31.457Z,16.00
2017-11-22T19:51:59.472Z,16.73
2017-11-22T19:54:27.435Z,16.10
2017-11-22T19:56:55.361Z,16.27
2017-11-22T19:59:23.257Z,18.57
2017-11-22T20:01:51.290Z,18.00
2017-11-22T20:04:19.188Z,16.50
2017-11-22T20:06:53.493Z,18.17
2017-11-22T20:09:21.446Z,17.97
2017-11-22T20:11:49.495Z,18.63
2017-11-22T20:14:17.449Z,19.77
2017-11-22T20:16:45.457Z,18.97
2017-11-22T20:19:13.390Z,19.10
2017-11-22T20:21:43.285Z,20.10
2017-11-22T20:24:11.150Z,20.67
2017-11-22T20:26:39.040Z,17.87
2017-11-22T20:29:06.894Z,17.03
2017-11-22T20:31:34.781Z,16.50
2017-11-22T20:34:02.774Z,16.50
2017-11-22T20:36:30.653Z,19.37
2017-11-22T20:38:58.506Z,16.50
2017-11-22T20:41:26.485Z,16.40
2017-11-22T20:43:54.381Z,18.23
2017-11-22T20:46:22.304Z,16.97
2017-11-22T20:48:50.433Z,18.87
2017-11-22T20:51:18.481Z,17.43
2017-11-22T20:53:46.461Z,16.33
2017-11-22T20:56:14.533Z,15.83
2017-11-22T20:58:42.461Z,16.83
2017-11-22T21:01:10.365Z,17.93
2017-11-22T21:03:38.237Z,18.10
2017-11-22T21:06:06.265Z,16.87
2017-11-22T21:08:34.205Z,18.37
2017-11-22T21:11:02.121Z,17.57
2017-11-22T21:13:29.977Z,18.00
2017-11-22T21:15:57.943Z,17.97
2017-11-22T21:18:25.873Z,18.23
2017-11-22T21:20:53.729Z,19.00
2017-11-22T21:23:21.623Z,18.30
2017-11-22T21:25:49.872Z,18.00
2017-11-22T21:28:17.813Z,18.17
2017-11-22T21:30:45.740Z,18.70
2017-11-22T21:33:13.760Z,18.33
2017-11-22T21:35:42.032Z,18.00
2017-11-22T21:38:09.927Z,19.83
2017-11-22T21:40:37.817Z,20.90
2017-11-22T21:43:05.676Z,19.50
2017-11-22T21:45:33.712Z,20.87
2017-11-22T21:48:01.572Z,21.10
2017-11-22T21:50:29.544Z,19.33
2017-11-22T21:52:57.429Z,19.63
2017-11-22T21:55:25.269Z,20.13
2017-11-22T21:57:53.105Z,20.53
2017-11-22T22:00:20.977Z,19.90
2017-11-22T22:02:48.839Z,20.10
2017-11-22T22:05:16.705Z,19.83
2017-11-22T22:07:44.610Z,20.40
2017-11-22T22:10:12.533Z,19.70
2017-11-22T22:12:40.433Z,19.33
2017-11-22T22:15:08.301Z,19.10
2017-11-22T22:17:36.154Z,18.87
2017-11-22T22:20:03.994Z,20.33
2017-11-22T22:22:31.956Z,18.80
2017-11-22T22:24:59.949Z,19.27
2017-11-22T22:27:27.998Z,18.93
2017-11-22T22:29:56.111Z,18.70
2017-11-22T22:32:23.962Z,20.70
2017-11-22T22:34:51.949Z,18.07
2017-11-22T22:37:19.889Z,18.60
2017-11-22T22:39:48.741Z,18.77
2017-11-22T22:42:16.621Z,20.30
2017-11-22T22:44:44.552Z,17.93
2017-11-22T22:47:12.522Z,20.33
2017-11-22T22:49:40.398Z,19.70
2017-11-22T22:52:08.285Z,18.30
2017-11-22T22:54:36.164Z,19.87
2017-11-22T22:57:04.085Z,19.60
2017-11-22T22:59:31.973Z,18.40
2017-11-22T23:01:59.881Z,18.20
2017-11-22T23:04:27.745Z,18.30
2017-11-22T23:06:55.635Z,20.60
2017-11-22T23:09:23.510Z,18.30
2017-11-22T23:11:51.389Z,21.03
2017-11-22T23:14:19.318Z,17.33
2017-11-22T23:16:47.173Z,17.27
2017-11-22T23:19:15.028Z,21.37
2017-11-22T23:21:42.976Z,19.40
2017-11-22T23:24:10.845Z,20.23
2017-11-22T23:26:38.808Z,17.83
2017-11-22T23:29:06.692Z,17.53
2017-11-22T23:31:34.538Z,18.30
2017-11-22T23:34:02.385Z,16.77
2017-11-22T23:36:31.476Z,17.37
2017-11-22T23:38:59.325Z,16.57
2017-11-22T23:41:27.170Z,18.00
2017-11-22T23:43:55.101Z,16.20
2017-11-22T23:46:22.995Z,16.03
2017-11-22T23:48:50.854Z,15.47
2017-11-22T23:51:18.764Z,17.53
2017-11-22T23:53:46.622Z,17.03
2017-11-22T23:56:14.494Z,17.57
2017-11-22T23:58:42.428Z,16.47
